sensor_id;sensor_type;location;lat;lon;timestamp;pressure;altitude;pressure_sealevel;temperature;humidity
73457;BME280;61691;53.072;6.582;2023-04-25T00:00:16;100880.13;;;8.06;73.25
73457;BME280;61691;53.072;6.582;2023-04-25T00:02:43;100870.25;;;7.97;73.42
73457;BME280;61691;53.072;6.582;2023-04-25T00:05:10;100881.81;;;8.07;73.11
73457;BME280;61691;53.072;6.582;2023-04-25T00:07:38;100880.13;;;8.06;73.07
73457;BME280;61691;53.072;6.582;2023-04-25T00:10:05;100871.00;;;7.99;72.85
73457;BME280;61691;53.072;6.582;2023-04-25T00:12:32;100871.56;;;7.92;73.17
73457;BME280;61691;53.072;6.582;2023-04-25T00:15:00;100858.75;;;7.87;72.85
73457;BME280;61691;53.072;6.582;2023-04-25T00:17:27;100853.22;;;7.79;72.67
73457;BME280;61691;53.072;6.582;2023-04-25T00:19:54;100886.56;;;7.91;72.26
73457;BME280;61691;53.072;6.582;2023-04-25T00:22:21;100888.50;;;7.89;72.30
73457;BME280;61691;53.072;6.582;2023-04-25T00:24:48;100881.53;;;7.88;72.57
73457;BME280;61691;53.072;6.582;2023-04-25T00:27:14;100875.06;;;7.81;72.37
73457;BME280;61691;53.072;6.582;2023-04-25T00:29:41;100902.19;;;7.94;72.16
73457;BME280;61691;53.072;6.582;2023-04-25T00:32:08;100884.50;;;7.84;72.04
73457;BME280;61691;53.072;6.582;2023-04-25T00:34:35;100883.91;;;7.80;72.26
73457;BME280;61691;53.072;6.582;2023-04-25T00:37:01;100872.16;;;7.73;72.25
73457;BME280;61691;53.072;6.582;2023-04-25T00:39:28;100882.22;;;7.79;72.41
73457;BME280;61691;53.072;6.582;2023-04-25T00:41:55;100891.09;;;7.78;72.18
73457;BME280;61691;53.072;6.582;2023-04-25T00:44:22;100893.53;;;7.81;71.73
73457;BME280;61691;53.072;6.582;2023-04-25T00:46:50;100906.34;;;7.86;71.43
73457;BME280;61691;53.072;6.582;2023-04-25T00:49:18;100896.38;;;7.78;71.39
73457;BME280;61691;53.072;6.582;2023-04-25T00:51:45;100906.44;;;7.73;71.54
73457;BME280;61691;53.072;6.582;2023-04-25T00:54:14;100904.03;;;7.70;71.27
73457;BME280;61691;53.072;6.582;2023-04-25T00:56:42;100899.69;;;7.69;71.56
73457;BME280;61691;53.072;6.582;2023-04-25T00:59:09;100907.63;;;7.69;71.21
73457;BME280;61691;53.072;6.582;2023-04-25T01:01:36;100895.09;;;7.60;71.74
73457;BME280;61691;53.072;6.582;2023-04-25T01:04:04;100907.50;;;7.70;71.63
73457;BME280;61691;53.072;6.582;2023-04-25T01:06:32;100880.25;;;7.59;71.28
73457;BME280;61691;53.072;6.582;2023-04-25T01:08:59;100893.69;;;7.67;71.20
73457;BME280;61691;53.072;6.582;2023-04-25T01:11:26;100881.31;;;7.56;71.24
73457;BME280;61691;53.072;6.582;2023-04-25T01:13:53;100902.34;;;7.69;71.22
73457;BME280;61691;53.072;6.582;2023-04-25T01:16:19;100898.25;;;7.65;70.97
73457;BME280;61691;53.072;6.582;2023-04-25T01:18:47;100908.06;;;7.63;70.63
73457;BME280;61691;53.072;6.582;2023-04-25T01:21:14;100903.00;;;7.60;70.59
73457;BME280;61691;53.072;6.582;2023-04-25T01:23:41;100905.78;;;7.58;70.76
73457;BME280;61691;53.072;6.582;2023-04-25T01:26:10;100857.56;;;7.21;70.05
73457;BME280;61691;53.072;6.582;2023-04-25T01:28:38;100916.78;;;7.52;69.94
73457;BME280;61691;53.072;6.582;2023-04-25T01:31:08;100888.28;;;7.33;70.16
73457;BME280;61691;53.072;6.582;2023-04-25T01:33:35;100894.06;;;7.38;69.76
73457;BME280;61691;53.072;6.582;2023-04-25T01:36:02;100908.72;;;7.43;69.82
73457;BME280;61691;53.072;6.582;2023-04-25T01:38:29;100926.72;;;7.49;69.68
73457;BME280;61691;53.072;6.582;2023-04-25T01:40:56;100911.94;;;7.46;69.65
73457;BME280;61691;53.072;6.582;2023-04-25T01:43:23;100923.13;;;7.50;69.89
73457;BME280;61691;53.072;6.582;2023-04-25T01:45:50;100926.72;;;7.49;69.94
73457;BME280;61691;53.072;6.582;2023-04-25T01:48:18;100910.13;;;7.35;69.31
73457;BME280;61691;53.072;6.582;2023-04-25T01:50:45;100928.63;;;7.47;69.60
73457;BME280;61691;53.072;6.582;2023-04-25T01:53:12;100937.28;;;7.49;69.61
73457;BME280;61691;53.072;6.582;2023-04-25T01:55:40;100868.25;;;7.07;69.52
73457;BME280;61691;53.072;6.582;2023-04-25T01:58:08;100947.44;;;7.42;69.22
73457;BME280;61691;53.072;6.582;2023-04-25T02:00:36;100928.34;;;7.38;69.41
73457;BME280;61691;53.072;6.582;2023-04-25T02:03:07;100920.66;;;7.35;68.84
73457;BME280;61691;53.072;6.582;2023-04-25T02:05:37;100914.47;;;7.24;68.92
73457;BME280;61691;53.072;6.582;2023-04-25T02:08:07;100921.63;;;7.34;69.24
73457;BME280;61691;53.072;6.582;2023-04-25T02:10:35;100951.63;;;7.45;69.09
73457;BME280;61691;53.072;6.582;2023-04-25T02:13:02;100923.03;;;7.27;68.76
73457;BME280;61691;53.072;6.582;2023-04-25T02:15:31;100917.34;;;7.21;69.01
73457;BME280;61691;53.072;6.582;2023-04-25T02:17:57;100950.28;;;7.39;69.01
73457;BME280;61691;53.072;6.582;2023-04-25T02:20:27;100940.09;;;7.34;68.44
73457;BME280;61691;53.072;6.582;2023-04-25T02:22:55;100934.63;;;7.25;68.32
73457;BME280;61691;53.072;6.582;2023-04-25T02:25:21;100940.94;;;7.22;68.24
73457;BME280;61691;53.072;6.582;2023-04-25T02:27:48;100962.13;;;7.33;68.70
73457;BME280;61691;53.072;6.582;2023-04-25T02:30:15;100955.50;;;7.28;68.34
73457;BME280;61691;53.072;6.582;2023-04-25T02:32:42;100954.09;;;7.35;68.43
73457;BME280;61691;53.072;6.582;2023-04-25T02:35:09;100941.69;;;7.24;68.15
73457;BME280;61691;53.072;6.582;2023-04-25T02:37:37;100954.41;;;7.30;67.81
73457;BME280;61691;53.072;6.582;2023-04-25T02:40:04;100959.09;;;7.27;67.87
73457;BME280;61691;53.072;6.582;2023-04-25T02:42:31;100963.72;;;7.23;68.25
73457;BME280;61691;53.072;6.582;2023-04-25T02:44:58;100949.53;;;7.13;68.10
73457;BME280;61691;53.072;6.582;2023-04-25T02:47:25;100952.59;;;7.07;67.88
73457;BME280;61691;53.072;6.582;2023-04-25T02:49:52;100947.31;;;7.07;68.08
73457;BME280;61691;53.072;6.582;2023-04-25T02:52:19;100957.66;;;7.10;67.59
73457;BME280;61691;53.072;6.582;2023-04-25T02:54:45;100932.59;;;6.92;67.84
73457;BME280;61691;53.072;6.582;2023-04-25T02:57:12;100951.78;;;7.07;68.02
73457;BME280;61691;53.072;6.582;2023-04-25T02:59:39;100965.06;;;7.05;67.93
73457;BME280;61691;53.072;6.582;2023-04-25T03:02:05;100949.88;;;6.96;67.92
73457;BME280;61691;53.072;6.582;2023-04-25T03:04:32;100959.25;;;7.00;67.81
73457;BME280;61691;53.072;6.582;2023-04-25T03:06:59;100956.41;;;7.03;67.41
73457;BME280;61691;53.072;6.582;2023-04-25T03:09:27;100957.34;;;7.02;67.79
73457;BME280;61691;53.072;6.582;2023-04-25T03:11:54;100964.13;;;7.06;67.83
73457;BME280;61691;53.072;6.582;2023-04-25T03:14:20;100940.50;;;6.92;67.89
73457;BME280;61691;53.072;6.582;2023-04-25T03:16:47;100963.38;;;7.04;67.57
73457;BME280;61691;53.072;6.582;2023-04-25T03:19:14;100958.31;;;7.01;67.41
73457;BME280;61691;53.072;6.582;2023-04-25T03:21:43;100948.41;;;6.92;67.62
73457;BME280;61691;53.072;6.582;2023-04-25T03:24:10;100966.00;;;7.04;67.39
73457;BME280;61691;53.072;6.582;2023-04-25T03:26:37;100969.59;;;7.03;67.52
73457;BME280;61691;53.072;6.582;2023-04-25T03:29:04;100979.19;;;7.04;67.55
73457;BME280;61691;53.072;6.582;2023-04-25T03:31:30;100970.97;;;6.96;67.72
73457;BME280;61691;53.072;6.582;2023-04-25T03:33:58;100973.41;;;6.99;67.62
73457;BME280;61691;53.072;6.582;2023-04-25T03:36:24;100977.69;;;7.00;67.23
73457;BME280;61691;53.072;6.582;2023-04-25T03:38:51;100977.09;;;6.96;67.74
73457;BME280;61691;53.072;6.582;2023-04-25T03:41:18;100958.44;;;6.87;67.67
73457;BME280;61691;53.072;6.582;2023-04-25T03:43:44;100984.66;;;7.01;67.34
73457;BME280;61691;53.072;6.582;2023-04-25T03:46:11;100963.19;;;6.82;67.63
73457;BME280;61691;53.072;6.582;2023-04-25T03:48:38;100983.84;;;6.88;67.46
73457;BME280;61691;53.072;6.582;2023-04-25T03:51:04;100982.38;;;6.84;67.52
73457;BME280;61691;53.072;6.582;2023-04-25T03:53:31;100972.47;;;6.75;67.40
73457;BME280;61691;53.072;6.582;2023-04-25T03:55:58;100979.09;;;6.80;67.53
73457;BME280;61691;53.072;6.582;2023-04-25T03:58:25;100987.22;;;6.77;67.24
73457;BME280;61691;53.072;6.582;2023-04-25T04:00:52;100985.00;;;6.71;67.50
73457;BME280;61691;53.072;6.582;2023-04-25T04:03:18;100996.28;;;6.73;67.20
73457;BME280;61691;53.072;6.582;2023-04-25T04:05:45;100998.59;;;6.65;67.42
73457;BME280;61691;53.072;6.582;2023-04-25T04:08:13;100945.50;;;6.33;67.08
73457;BME280;61691;53.072;6.582;2023-04-25T04:10:39;100993.34;;;6.52;66.88
73457;BME280;61691;53.072;6.582;2023-04-25T04:13:06;101015.88;;;6.56;67.10
73457;BME280;61691;53.072;6.582;2023-04-25T04:15:33;101006.94;;;6.46;67.29
73457;BME280;61691;53.072;6.582;2023-04-25T04:18:00;101010.19;;;6.37;67.30
73457;BME280;61691;53.072;6.582;2023-04-25T04:20:29;100960.03;;;6.01;67.09
73457;BME280;61691;53.072;6.582;2023-04-25T04:22:59;101028.41;;;6.40;67.06
73457;BME280;61691;53.072;6.582;2023-04-25T04:25:25;101024.31;;;6.36;67.49
73457;BME280;61691;53.072;6.582;2023-04-25T04:27:52;101040.44;;;6.44;67.17
73457;BME280;61691;53.072;6.582;2023-04-25T04:30:22;100945.03;;;5.89;67.49
73457;BME280;61691;53.072;6.582;2023-04-25T04:32:51;101017.34;;;6.35;67.33
73457;BME280;61691;53.072;6.582;2023-04-25T04:35:18;101044.00;;;6.43;66.95
73457;BME280;61691;53.072;6.582;2023-04-25T04:37:45;101024.72;;;6.30;66.91
73457;BME280;61691;53.072;6.582;2023-04-25T04:40:14;101063.72;;;6.50;67.23
73457;BME280;61691;53.072;6.582;2023-04-25T04:42:43;101053.19;;;6.50;66.86
73457;BME280;61691;53.072;6.582;2023-04-25T04:45:11;101046.44;;;6.46;66.86
73457;BME280;61691;53.072;6.582;2023-04-25T04:47:38;101034.22;;;6.45;67.22
73457;BME280;61691;53.072;6.582;2023-04-25T04:50:07;101046.88;;;6.53;66.98
73457;BME280;61691;53.072;6.582;2023-04-25T04:52:36;101054.44;;;6.57;67.21
73457;BME280;61691;53.072;6.582;2023-04-25T04:55:04;101038.66;;;6.57;67.20
73457;BME280;61691;53.072;6.582;2023-04-25T04:57:32;101039.91;;;6.65;66.86
73457;BME280;61691;53.072;6.582;2023-04-25T04:59:59;101034.44;;;6.68;67.08
73457;BME280;61691;53.072;6.582;2023-04-25T05:02:26;101049.91;;;6.85;67.53
73457;BME280;61691;53.072;6.582;2023-04-25T05:04:53;101082.91;;;7.28;67.75
73457;BME280;61691;53.072;6.582;2023-04-25T05:07:20;101060.44;;;7.72;68.16
73457;BME280;61691;53.072;6.582;2023-04-25T05:09:47;101063.59;;;8.25;67.34
73457;BME280;61691;53.072;6.582;2023-04-25T05:12:13;101082.91;;;8.49;66.00
73457;BME280;61691;53.072;6.582;2023-04-25T05:14:40;101072.66;;;8.33;65.31
73457;BME280;61691;53.072;6.582;2023-04-25T05:17:07;101065.31;;;8.13;65.24
73457;BME280;61691;53.072;6.582;2023-04-25T05:19:34;101084.38;;;8.05;65.42
73457;BME280;61691;53.072;6.582;2023-04-25T05:22:02;101093.09;;;7.95;65.31
73457;BME280;61691;53.072;6.582;2023-04-25T05:24:29;101102.41;;;7.88;64.85
73457;BME280;61691;53.072;6.582;2023-04-25T05:26:56;101100.97;;;7.71;64.71
73457;BME280;61691;53.072;6.582;2023-04-25T05:29:24;101099.94;;;7.61;64.71
73457;BME280;61691;53.072;6.582;2023-04-25T05:31:50;101033.06;;;7.13;64.50
73457;BME280;61691;53.072;6.582;2023-04-25T05:34:17;101110.06;;;7.54;64.80
73457;BME280;61691;53.072;6.582;2023-04-25T05:36:44;101060.56;;;7.21;65.06
73457;BME280;61691;53.072;6.582;2023-04-25T05:39:10;101113.88;;;7.63;64.76
73457;BME280;61691;53.072;6.582;2023-04-25T05:41:38;101113.34;;;7.94;65.20
73457;BME280;61691;53.072;6.582;2023-04-25T05:44:04;101110.88;;;8.28;65.22
73457;BME280;61691;53.072;6.582;2023-04-25T05:46:32;101089.03;;;8.49;64.82
73457;BME280;61691;53.072;6.582;2023-04-25T05:48:58;101124.41;;;9.50;65.74
73457;BME280;61691;53.072;6.582;2023-04-25T05:51:25;101116.59;;;10.57;64.64
73457;BME280;61691;53.072;6.582;2023-04-25T05:53:52;101123.66;;;11.70;63.40
73457;BME280;61691;53.072;6.582;2023-04-25T05:56:19;101126.63;;;12.74;61.93
73457;BME280;61691;53.072;6.582;2023-04-25T05:58:46;101108.19;;;13.56;60.45
73457;BME280;61691;53.072;6.582;2023-04-25T06:01:13;101123.41;;;14.37;57.98
73457;BME280;61691;53.072;6.582;2023-04-25T06:03:40;101122.13;;;14.94;56.47
73457;BME280;61691;53.072;6.582;2023-04-25T06:06:09;101112.25;;;15.46;54.91
73457;BME280;61691;53.072;6.582;2023-04-25T06:08:36;101129.94;;;16.23;53.22
73457;BME280;61691;53.072;6.582;2023-04-25T06:11:04;101075.94;;;16.27;51.00
73457;BME280;61691;53.072;6.582;2023-04-25T06:13:31;101121.09;;;16.47;48.04
73457;BME280;61691;53.072;6.582;2023-04-25T06:15:58;101139.00;;;16.54;47.75
73457;BME280;61691;53.072;6.582;2023-04-25T06:18:24;101133.69;;;16.79;46.25
73457;BME280;61691;53.072;6.582;2023-04-25T06:20:51;101133.03;;;16.60;45.12
73457;BME280;61691;53.072;6.582;2023-04-25T06:23:18;101137.94;;;16.15;44.31
73457;BME280;61691;53.072;6.582;2023-04-25T06:25:44;101133.00;;;15.52;43.81
73457;BME280;61691;53.072;6.582;2023-04-25T06:28:11;101111.81;;;14.81;44.20
73457;BME280;61691;53.072;6.582;2023-04-25T06:30:38;101131.75;;;14.33;43.66
73457;BME280;61691;53.072;6.582;2023-04-25T06:33:05;101156.34;;;14.00;44.81
73457;BME280;61691;53.072;6.582;2023-04-25T06:35:31;101123.59;;;13.63;44.90
73457;BME280;61691;53.072;6.582;2023-04-25T06:37:58;101134.63;;;13.40;44.32
73457;BME280;61691;53.072;6.582;2023-04-25T06:40:25;101110.66;;;12.84;44.70
73457;BME280;61691;53.072;6.582;2023-04-25T06:42:52;101155.16;;;12.72;45.20
73457;BME280;61691;53.072;6.582;2023-04-25T06:45:18;101151.53;;;12.83;46.39
73457;BME280;61691;53.072;6.582;2023-04-25T06:47:45;101144.22;;;13.04;46.27
73457;BME280;61691;53.072;6.582;2023-04-25T06:50:12;101135.78;;;13.09;46.16
73457;BME280;61691;53.072;6.582;2023-04-25T06:52:38;101136.25;;;13.14;46.24
73457;BME280;61691;53.072;6.582;2023-04-25T06:55:05;101150.09;;;13.08;45.28
73457;BME280;61691;53.072;6.582;2023-04-25T06:57:32;101157.81;;;12.72;45.59
73457;BME280;61691;53.072;6.582;2023-04-25T06:59:59;101149.56;;;12.56;46.47
73457;BME280;61691;53.072;6.582;2023-04-25T07:02:27;101154.50;;;13.46;47.54
73457;BME280;61691;53.072;6.582;2023-04-25T07:04:55;101142.41;;;14.51;46.20
73457;BME280;61691;53.072;6.582;2023-04-25T07:07:26;101169.88;;;15.74;43.78
73457;BME280;61691;53.072;6.582;2023-04-25T07:09:53;101137.66;;;16.42;42.80
73457;BME280;61691;53.072;6.582;2023-04-25T07:12:20;101149.72;;;17.27;41.27
73457;BME280;61691;53.072;6.582;2023-04-25T07:14:46;101181.50;;;17.55;38.48
73457;BME280;61691;53.072;6.582;2023-04-25T07:17:13;101182.19;;;17.40;37.98
73457;BME280;61691;53.072;6.582;2023-04-25T07:19:40;101158.38;;;17.46;38.01
73457;BME280;61691;53.072;6.582;2023-04-25T07:22:07;101181.19;;;17.33;36.24
73457;BME280;61691;53.072;6.582;2023-04-25T07:24:33;101178.91;;;17.06;36.01
73457;BME280;61691;53.072;6.582;2023-04-25T07:27:01;101185.06;;;17.23;35.93
73457;BME280;61691;53.072;6.582;2023-04-25T07:29:27;101160.06;;;17.63;35.67
73457;BME280;61691;53.072;6.582;2023-04-25T07:31:54;101165.22;;;18.11;34.40
73457;BME280;61691;53.072;6.582;2023-04-25T07:34:21;101136.22;;;18.38;33.38
73457;BME280;61691;53.072;6.582;2023-04-25T07:36:48;101202.59;;;19.35;32.53
73457;BME280;61691;53.072;6.582;2023-04-25T07:39:14;101187.63;;;19.18;30.05
73457;BME280;61691;53.072;6.582;2023-04-25T07:41:41;101198.34;;;18.58;29.72
73457;BME280;61691;53.072;6.582;2023-04-25T07:44:08;101193.38;;;17.68;30.14
73457;BME280;61691;53.072;6.582;2023-04-25T07:46:34;101208.34;;;16.90;30.62
73457;BME280;61691;53.072;6.582;2023-04-25T07:49:01;101177.81;;;15.92;31.81
73457;BME280;61691;53.072;6.582;2023-04-25T07:51:28;101209.38;;;15.37;32.90
73457;BME280;61691;53.072;6.582;2023-04-25T07:53:55;101207.78;;;14.65;33.62
73457;BME280;61691;53.072;6.582;2023-04-25T07:56:22;101196.66;;;13.97;35.34
73457;BME280;61691;53.072;6.582;2023-04-25T07:58:49;101197.94;;;13.46;36.09
73457;BME280;61691;53.072;6.582;2023-04-25T08:01:16;101206.28;;;13.05;36.96
73457;BME280;61691;53.072;6.582;2023-04-25T08:03:43;101222.50;;;12.73;37.53
73457;BME280;61691;53.072;6.582;2023-04-25T08:06:10;101233.78;;;12.36;38.32
73457;BME280;61691;53.072;6.582;2023-04-25T08:08:38;101230.34;;;12.06;39.71
73457;BME280;61691;53.072;6.582;2023-04-25T08:11:04;101248.69;;;11.78;40.69
73457;BME280;61691;53.072;6.582;2023-04-25T08:13:31;101244.03;;;11.50;42.07
73457;BME280;61691;53.072;6.582;2023-04-25T08:15:58;101265.19;;;11.61;42.95
73457;BME280;61691;53.072;6.582;2023-04-25T08:18:24;101232.59;;;11.59;43.55
73457;BME280;61691;53.072;6.582;2023-04-25T08:20:51;101249.44;;;11.69;42.77
73457;BME280;61691;53.072;6.582;2023-04-25T08:23:18;101232.34;;;11.62;43.19
73457;BME280;61691;53.072;6.582;2023-04-25T08:25:44;101229.88;;;11.70;43.36
73457;BME280;61691;53.072;6.582;2023-04-25T08:28:11;101250.16;;;11.92;43.20
73457;BME280;61691;53.072;6.582;2023-04-25T08:30:38;101250.47;;;11.98;43.26
73457;BME280;61691;53.072;6.582;2023-04-25T08:33:04;101262.28;;;11.85;43.81
73457;BME280;61691;53.072;6.582;2023-04-25T08:35:31;101293.28;;;11.43;45.48
73457;BME280;61691;53.072;6.582;2023-04-25T08:37:59;101314.53;;;10.79;46.33
73457;BME280;61691;53.072;6.582;2023-04-25T08:40:27;101310.59;;;10.06;48.55
73457;BME280;61691;53.072;6.582;2023-04-25T08:42:57;101323.38;;;9.55;48.71
73457;BME280;61691;53.072;6.582;2023-04-25T08:45:27;101322.31;;;9.23;50.64
73457;BME280;61691;53.072;6.582;2023-04-25T08:47:54;101254.88;;;8.70;50.68
73457;BME280;61691;53.072;6.582;2023-04-25T08:50:24;101293.31;;;8.86;51.79
73457;BME280;61691;53.072;6.582;2023-04-25T08:52:54;101282.66;;;8.75;52.69
73457;BME280;61691;53.072;6.582;2023-04-25T08:55:21;101345.38;;;9.21;53.04
73457;BME280;61691;53.072;6.582;2023-04-25T08:57:49;101347.53;;;9.40;54.14
73457;BME280;61691;53.072;6.582;2023-04-25T09:00:17;101337.53;;;9.43;53.97
73457;BME280;61691;53.072;6.582;2023-04-25T09:02:45;101312.28;;;9.39;53.76
73457;BME280;61691;53.072;6.582;2023-04-25T09:05:13;101322.88;;;9.39;53.81
73457;BME280;61691;53.072;6.582;2023-04-25T09:07:40;101334.69;;;9.46;54.09
73457;BME280;61691;53.072;6.582;2023-04-25T09:10:08;101309.50;;;9.41;54.05
73457;BME280;61691;53.072;6.582;2023-04-25T09:12:35;101295.94;;;9.45;54.68
73457;BME280;61691;53.072;6.582;2023-04-25T09:15:06;101341.00;;;9.79;54.63
73457;BME280;61691;53.072;6.582;2023-04-25T09:17:33;101312.47;;;9.71;54.46
73457;BME280;61691;53.072;6.582;2023-04-25T09:20:12;101328.06;;;9.98;54.72
73457;BME280;61691;53.072;6.582;2023-04-25T09:22:39;101333.59;;;10.06;54.70
73457;BME280;61691;53.072;6.582;2023-04-25T09:25:11;101330.69;;;10.09;54.47
73457;BME280;61691;53.072;6.582;2023-04-25T09:27:52;101306.25;;;10.05;54.74
73457;BME280;61691;53.072;6.582;2023-04-25T09:30:28;101323.03;;;10.28;54.57
73457;BME280;61691;53.072;6.582;2023-04-25T09:33:09;101304.72;;;10.36;54.46
73457;BME280;61691;53.072;6.582;2023-04-25T09:35:42;101321.06;;;10.53;53.83
73457;BME280;61691;53.072;6.582;2023-04-25T09:38:14;101302.78;;;10.50;53.39
73457;BME280;61691;53.072;6.582;2023-04-25T09:40:43;101318.41;;;10.64;52.39
73457;BME280;61691;53.072;6.582;2023-04-25T09:43:25;101316.22;;;10.69;52.42
73457;BME280;61691;53.072;6.582;2023-04-25T09:45:54;101335.47;;;10.93;52.09
73457;BME280;61691;53.072;6.582;2023-04-25T09:48:25;101338.59;;;10.98;51.88
73457;BME280;61691;53.072;6.582;2023-04-25T09:51:08;101371.75;;;10.93;52.41
73457;BME280;61691;53.072;6.582;2023-04-25T09:53:38;101366.63;;;10.58;52.62
73457;BME280;61691;53.072;6.582;2023-04-25T09:56:07;101330.84;;;10.19;53.38
73457;BME280;61691;53.072;6.582;2023-04-25T09:58:36;101346.34;;;10.01;53.76
73457;BME280;61691;53.072;6.582;2023-04-25T10:01:05;101306.22;;;9.61;54.69
73457;BME280;61691;53.072;6.582;2023-04-25T10:03:34;101380.50;;;9.93;55.05
73457;BME280;61691;53.072;6.582;2023-04-25T10:06:07;101366.78;;;9.88;55.99
73457;BME280;61691;53.072;6.582;2023-04-25T10:08:36;101361.25;;;9.91;56.63
73457;BME280;61691;53.072;6.582;2023-04-25T10:11:05;101374.78;;;9.99;56.76
73457;BME280;61691;53.072;6.582;2023-04-25T10:13:33;101374.19;;;10.06;57.24
73457;BME280;61691;53.072;6.582;2023-04-25T10:16:02;101372.75;;;10.14;57.19
73457;BME280;61691;53.072;6.582;2023-04-25T10:18:30;101367.84;;;10.20;57.22
73457;BME280;61691;53.072;6.582;2023-04-25T10:20:59;101345.88;;;10.07;55.85
73457;BME280;61691;53.072;6.582;2023-04-25T10:23:27;101339.13;;;10.03;55.72
73457;BME280;61691;53.072;6.582;2023-04-25T10:25:55;101350.38;;;10.18;53.49
73457;BME280;61691;53.072;6.582;2023-04-25T10:28:23;101320.34;;;9.95;52.62
73457;BME280;61691;53.072;6.582;2023-04-25T10:31:00;101367.13;;;10.29;51.52
73457;BME280;61691;53.072;6.582;2023-04-25T10:33:34;101363.03;;;10.36;51.57
73457;BME280;61691;53.072;6.582;2023-04-25T10:36:12;101335.78;;;10.23;51.67
73457;BME280;61691;53.072;6.582;2023-04-25T10:38:39;101370.25;;;10.57;50.89
73457;BME280;61691;53.072;6.582;2023-04-25T10:41:08;101370.25;;;10.57;51.64
73457;BME280;61691;53.072;6.582;2023-04-25T10:46:25;101360.47;;;10.68;51.50
73457;BME280;61691;53.072;6.582;2023-04-25T10:48:54;101347.34;;;10.56;49.86
73457;BME280;61691;53.072;6.582;2023-04-25T10:51:25;101350.03;;;10.44;49.64
73457;BME280;61691;53.072;6.582;2023-04-25T10:54:02;101384.22;;;10.59;49.57
73457;BME280;61691;53.072;6.582;2023-04-25T10:56:37;101376.97;;;10.61;49.56
73457;BME280;61691;53.072;6.582;2023-04-25T10:59:13;101339.63;;;10.53;50.08
73457;BME280;61691;53.072;6.582;2023-04-25T11:04:36;101385.69;;;11.17;49.26
73457;BME280;61691;53.072;6.582;2023-04-25T11:07:34;101392.53;;;11.31;48.94
73457;BME280;61691;53.072;6.582;2023-04-25T11:10:04;101392.34;;;11.11;49.05
73457;BME280;61691;53.072;6.582;2023-04-25T11:12:31;101391.22;;;10.82;50.10
73457;BME280;61691;53.072;6.582;2023-04-25T11:15:06;101397.47;;;10.47;49.92
73457;BME280;61691;53.072;6.582;2023-04-25T11:17:34;101396.50;;;10.26;50.60
73457;BME280;61691;53.072;6.582;2023-04-25T11:20:01;101431.31;;;10.33;51.61
73457;BME280;61691;53.072;6.582;2023-04-25T11:22:27;101410.69;;;10.14;51.80
73457;BME280;61691;53.072;6.582;2023-04-25T11:24:55;101425.88;;;10.23;52.22
73457;BME280;61691;53.072;6.582;2023-04-25T11:27:21;101421.69;;;10.21;52.75
73457;BME280;61691;53.072;6.582;2023-04-25T11:29:48;101399.50;;;10.33;53.12
73457;BME280;61691;53.072;6.582;2023-04-25T11:32:17;101383.50;;;10.45;53.47
73457;BME280;61691;53.072;6.582;2023-04-25T11:34:46;101421.06;;;10.84;53.62
73457;BME280;61691;53.072;6.582;2023-04-25T11:37:14;101413.63;;;10.89;53.45
73457;BME280;61691;53.072;6.582;2023-04-25T11:39:44;101434.84;;;10.89;53.46
73457;BME280;61691;53.072;6.582;2023-04-25T11:42:12;101423.50;;;10.76;52.40
73457;BME280;61691;53.072;6.582;2023-04-25T11:44:39;101427.75;;;10.67;51.34
73457;BME280;61691;53.072;6.582;2023-04-25T11:47:07;101404.22;;;10.63;51.43
73457;BME280;61691;53.072;6.582;2023-04-25T11:49:35;101366.88;;;10.55;50.89
73457;BME280;61691;53.072;6.582;2023-04-25T11:52:02;101442.03;;;10.98;50.55
73457;BME280;61691;53.072;6.582;2023-04-25T11:54:29;101416.50;;;10.86;50.02
73457;BME280;61691;53.072;6.582;2023-04-25T11:56:56;101445.19;;;10.92;49.21
73457;BME280;61691;53.072;6.582;2023-04-25T11:59:24;101441.59;;;10.82;48.41
73457;BME280;61691;53.072;6.582;2023-04-25T12:01:51;101433.16;;;10.66;48.41
73457;BME280;61691;53.072;6.582;2023-04-25T12:04:22;101458.69;;;10.78;47.76
73457;BME280;61691;53.072;6.582;2023-04-25T12:06:53;101448.47;;;10.73;45.75
73457;BME280;61691;53.072;6.582;2023-04-25T12:09:31;101459.91;;;10.63;45.63
73457;BME280;61691;53.072;6.582;2023-04-25T12:12:00;101431.19;;;10.45;46.21
73457;BME280;61691;53.072;6.582;2023-04-25T12:14:31;101444.25;;;10.60;46.34
73457;BME280;61691;53.072;6.582;2023-04-25T12:17:00;101447.13;;;10.79;46.85
73457;BME280;61691;53.072;6.582;2023-04-25T12:19:32;101425.44;;;10.74;46.89
73457;BME280;61691;53.072;6.582;2023-04-25T12:22:00;101442.78;;;11.11;47.42
73457;BME280;61691;53.072;6.582;2023-04-25T12:24:27;101445.03;;;11.27;46.73
73457;BME280;61691;53.072;6.582;2023-04-25T12:27:04;101453.34;;;11.22;46.32
73457;BME280;61691;53.072;6.582;2023-04-25T12:29:32;101441.06;;;10.99;46.67
73457;BME280;61691;53.072;6.582;2023-04-25T12:32:15;101446.03;;;10.93;47.54
73457;BME280;61691;53.072;6.582;2023-04-25T12:34:43;101464.00;;;11.00;47.51
73457;BME280;61691;53.072;6.582;2023-04-25T12:37:10;101444.84;;;10.85;48.02
73457;BME280;61691;53.072;6.582;2023-04-25T12:39:37;101436.63;;;10.77;48.29
73457;BME280;61691;53.072;6.582;2023-04-25T12:42:03;101455.09;;;10.79;48.23
73457;BME280;61691;53.072;6.582;2023-04-25T12:44:34;101482.81;;;10.86;48.36
73457;BME280;61691;53.072;6.582;2023-04-25T12:47:01;101493.44;;;10.75;47.91
73457;BME280;61691;53.072;6.582;2023-04-25T12:49:30;101479.16;;;10.42;48.10
73457;BME280;61691;53.072;6.582;2023-04-25T12:51:56;101481.34;;;10.37;48.99
73457;BME280;61691;53.072;6.582;2023-04-25T12:54:23;101489.28;;;10.37;49.66
73457;BME280;61691;53.072;6.582;2023-04-25T12:56:51;101487.44;;;10.38;50.51
73457;BME280;61691;53.072;6.582;2023-04-25T12:59:17;101491.22;;;10.46;51.16
73457;BME280;61691;53.072;6.582;2023-04-25T13:01:45;101453.22;;;10.24;49.90
73457;BME280;61691;53.072;6.582;2023-04-25T13:04:12;101426.50;;;9.92;50.35